createdAt,value
2018-07-06T00:00:37.608Z,15.5
2018-07-06T00:01:27.619Z,15.4
2018-07-06T00:02:17.702Z,15.4
2018-07-06T00:03:08.067Z,15.4
2018-07-06T00:03:57.826Z,15.4
2018-07-06T00:04:47.581Z,15.4
2018-07-06T00:05:37.934Z,15.4
2018-07-06T00:06:28.274Z,15.3
2018-07-06T00:07:18.096Z,15.3
2018-07-06T00:08:07.586Z,15.3
2018-07-06T00:08:57.939Z,15.3
2018-07-06T00:09:48.284Z,15.3
2018-07-06T00:10:38.770Z,15.3
2018-07-06T00:11:28.416Z,15.3
2018-07-06T00:12:18.622Z,15.4
2018-07-06T00:13:08.264Z,15.4
2018-07-06T00:13:58.016Z,15.4
2018-07-06T00:14:48.385Z,15.3
2018-07-06T00:15:39.011Z,15.4
2018-07-06T00:16:28.792Z,15.4
2018-07-06T00:17:18.864Z,15.4
2018-07-06T00:18:08.931Z,15.4
2018-07-06T00:18:58.728Z,15.4
2018-07-06T00:19:48.774Z,15.4
2018-07-06T00:20:39.400Z,15.4
2018-07-06T00:21:28.902Z,15.4
2018-07-06T00:22:19.241Z,15.3
2018-07-06T00:23:09.594Z,15.3
2018-07-06T00:23:58.841Z,15.3
2018-07-06T00:24:49.151Z,15.4
2018-07-06T00:25:39.229Z,15.4
2018-07-06T00:26:29.279Z,15.5
2018-07-06T00:27:18.806Z,15.5
2018-07-06T00:28:09.711Z,15.5
2018-07-06T00:28:59.776Z,15.6
2018-07-06T00:29:49.841Z,15.6
2018-07-06T00:30:39.599Z,15.6
2018-07-06T00:31:30.218Z,15.6
2018-07-06T00:32:20.016Z,15.7
2018-07-06T00:33:10.341Z,15.7
2018-07-06T00:34:00.417Z,15.8
2018-07-06T00:34:49.930Z,15.7
2018-07-06T00:35:40.558Z,15.7
2018-07-06T00:36:30.648Z,15.7
2018-07-06T00:37:20.136Z,15.7
2018-07-06T00:38:10.188Z,15.7
2018-07-06T00:39:00.553Z,15.6
2018-07-06T00:39:50.865Z,15.6
2018-07-06T00:40:40.983Z,15.6
2018-07-06T00:41:31.035Z,15.6
2018-07-06T00:42:21.067Z,15.6
2018-07-06T00:43:10.874Z,15.6
2018-07-06T00:44:00.945Z,15.6
2018-07-06T00:44:51.272Z,15.6
2018-07-06T00:45:41.069Z,15.5
2018-07-06T00:46:30.858Z,15.5
2018-07-06T00:47:20.907Z,15.5
2018-07-06T00:48:11.521Z,15.4
2018-07-06T00:49:00.772Z,15.5
2018-07-06T00:49:51.668Z,15.4
2018-07-06T00:50:41.435Z,15.4
2018-07-06T00:51:31.508Z,15.4
2018-07-06T00:52:21.866Z,15.4
2018-07-06T00:53:11.642Z,15.3
2018-07-06T00:54:01.727Z,15.3
2018-07-06T00:54:52.248Z,15.3
2018-07-06T00:55:42.100Z,15.3
2018-07-06T00:56:31.907Z,15.3
2018-07-06T00:57:22.264Z,15.4
2018-07-06T00:58:12.331Z,15.3
2018-07-06T00:59:02.364Z,15.4
2018-07-06T00:59:52.500Z,15.3
2018-07-06T01:00:42.483Z,15.3
2018-07-06T01:01:32.708Z,15.3
2018-07-06T01:02:21.793Z,15.3
2018-07-06T01:03:12.410Z,15.3
2018-07-06T01:04:02.750Z,15.3
2018-07-06T01:04:52.824Z,15.3
2018-07-06T01:05:42.334Z,15.3
2018-07-06T01:06:32.671Z,15.3
2018-07-06T01:07:22.736Z,15.3
2018-07-06T01:08:13.086Z,15.3
2018-07-06T01:09:02.609Z,15.2
2018-07-06T01:09:52.941Z,15.2
2018-07-06T01:10:42.727Z,15.2
2018-07-06T01:11:33.104Z,15.2
2018-07-06T01:12:23.150Z,15.2
2018-07-06T01:13:13.179Z,15.2
2018-07-06T01:14:03.264Z,15.1
2018-07-06T01:14:53.665Z,15.1
2018-07-06T01:15:43.420Z,15.1
2018-07-06T01:16:33.720Z,15.1
2018-07-06T01:17:23.827Z,15.1
2018-07-06T01:18:13.337Z,15.1
2018-07-06T01:19:03.951Z,15.1
2018-07-06T01:19:53.726Z,15.1
2018-07-06T01:20:43.773Z,15.1
2018-07-06T01:21:33.575Z,15.1
2018-07-06T01:22:24.185Z,15.1
2018-07-06T01:23:14.278Z,15.1
2018-07-06T01:24:03.776Z,15.1
2018-07-06T01:24:54.395Z,15.1
2018-07-06T01:25:44.250Z,15.1
2018-07-06T01:26:34.247Z,15.1
2018-07-06T01:27:24.334Z,15.1
2018-07-06T01:28:14.647Z,15.1
2018-07-06T01:29:04.707Z,15.1
2018-07-06T01:29:54.514Z,15.1
2018-07-06T01:30:44.279Z,15.2
2018-07-06T01:31:34.912Z,15.3
2018-07-06T01:32:24.695Z,15.3
2018-07-06T01:33:14.757Z,15.3
2018-07-06T01:34:04.831Z,15.3
2018-07-06T01:34:55.145Z,15.3
2018-07-06T01:35:44.945Z,15.3
2018-07-06T01:36:35.000Z,15.3
2018-07-06T01:37:25.150Z,15.3
2018-07-06T01:38:15.151Z,15.3
2018-07-06T01:39:05.505Z,15.3
2018-07-06T01:39:55.287Z,15.2
2018-07-06T01:40:45.603Z,15.2
2018-07-06T01:41:35.388Z,15.1
2018-07-06T01:42:25.454Z,15.2
2018-07-06T01:43:15.559Z,15.2
2018-07-06T01:44:05.602Z,15.1
2018-07-06T01:44:55.112Z,15.1
2018-07-06T01:45:45.729Z,15.1
2018-07-06T01:46:36.050Z,15.1
2018-07-06T01:47:25.567Z,15.1
2018-07-06T01:48:15.637Z,15.1
2018-07-06T01:49:05.981Z,15.1
2018-07-06T01:49:56.039Z,15.1
2018-07-06T01:50:46.126Z,15
2018-07-06T01:51:36.455Z,15
2018-07-06T01:52:26.531Z,15
2018-07-06T01:53:16.591Z,15
2018-07-06T01:54:06.401Z,15
2018-07-06T01:54:56.715Z,14.9
2018-07-06T01:55:46.212Z,14.9
2018-07-06T01:56:36.571Z,14.8
2018-07-06T01:57:26.641Z,14.7
2018-07-06T01:58:16.427Z,14.6
2018-07-06T01:59:06.773Z,14.6
2018-07-06T01:59:57.100Z,14.6
2018-07-06T02:00:46.631Z,14.6
2018-07-06T02:01:37.255Z,14.6
2018-07-06T02:02:27.036Z,14.6
2018-07-06T02:03:17.356Z,14.6
2018-07-06T02:04:07.151Z,14.6
2018-07-06T02:04:57.215Z,14.6
2018-07-06T02:05:47.591Z,14.6
2018-07-06T02:06:37.072Z,14.6
2018-07-06T02:07:27.666Z,14.6
2018-07-06T02:08:17.773Z,14.7
2018-07-06T02:09:07.541Z,14.6
2018-07-06T02:09:57.870Z,14.7
2018-07-06T02:10:47.658Z,14.6
2018-07-06T02:11:38.013Z,14.6
2018-07-06T02:12:27.269Z,14.6
2018-07-06T02:13:17.924Z,14.6
2018-07-06T02:14:07.949Z,14.6
2018-07-06T02:14:58.265Z,14.6
2018-07-06T02:15:48.065Z,14.6
2018-07-06T02:16:38.381Z,14.6
2018-07-06T02:17:28.167Z,14.5
2018-07-06T02:18:18.522Z,14.5
2018-07-06T02:19:08.576Z,14.4
2018-07-06T02:19:58.373Z,14.5
2018-07-06T02:20:48.701Z,14.5
2018-07-06T02:21:38.635Z,14.5
2018-07-06T02:22:28.841Z,14.6
2018-07-06T02:23:18.631Z,14.6
2018-07-06T02:24:08.442Z,14.6
2018-07-06T02:24:58.761Z,14.6
2018-07-06T02:25:48.830Z,14.5
2018-07-06T02:26:38.914Z,14.5
2018-07-06T02:27:28.989Z,14.5
2018-07-06T02:28:18.740Z,14.5
2018-07-06T02:29:08.839Z,14.4
2018-07-06T02:29:59.449Z,14.5
2018-07-06T02:30:49.497Z,14.5
2018-07-06T02:31:39.352Z,14.5
2018-07-06T02:32:29.671Z,14.6
2018-07-06T02:33:19.406Z,14.5
2018-07-06T02:34:09.767Z,14.5
2018-07-06T02:34:59.574Z,14.5
2018-07-06T02:35:49.936Z,14.6
2018-07-06T02:36:39.696Z,14.6
2018-07-06T02:37:29.748Z,14.6
2018-07-06T02:38:19.800Z,14.7
2018-07-06T02:39:10.179Z,14.6
2018-07-06T02:40:00.247Z,14.7
2018-07-06T02:40:50.325Z,14.7
2018-07-06T02:41:40.352Z,14.7
2018-07-06T02:42:30.142Z,14.7
2018-07-06T02:43:19.936Z,14.8
2018-07-06T02:44:10.558Z,14.7
2018-07-06T02:45:00.321Z,14.8
2018-07-06T02:45:50.747Z,14.8
2018-07-06T02:46:40.447Z,14.8
2018-07-06T02:47:30.234Z,14.8
2018-07-06T02:48:20.573Z,14.7
2018-07-06T02:49:10.641Z,14.7
2018-07-06T02:50:01.037Z,14.8
2018-07-06T02:50:51.052Z,14.8
2018-07-06T02:51:40.855Z,14.8
2018-07-06T02:52:31.178Z,14.8
2018-07-06T02:53:20.976Z,14.8
2018-07-06T02:54:11.040Z,14.8
2018-07-06T02:55:01.558Z,14.7
2018-07-06T02:55:51.172Z,14.7
2018-07-06T02:56:41.272Z,14.7
2018-07-06T02:57:31.583Z,14.6
2018-07-06T02:58:21.394Z,14.6
2018-07-06T02:59:11.190Z,14.6
2018-07-06T03:00:01.226Z,14.6
2018-07-06T03:00:51.269Z,14.6
2018-07-06T03:01:41.625Z,14.6
2018-07-06T03:02:31.683Z,14.5
2018-07-06T03:03:22.037Z,14.5
2018-07-06T03:04:11.813Z,14.4
2018-07-06T03:05:02.178Z,14.5
2018-07-06T03:05:51.957Z,14.5
2018-07-06T03:06:42.015Z,14.5
2018-07-06T03:07:32.384Z,14.5
2018-07-06T03:08:22.421Z,14.4
2018-07-06T03:09:12.219Z,14.4
2018-07-06T03:10:02.275Z,14.4
2018-07-06T03:10:52.031Z,14.4
2018-07-06T03:11:42.395Z,14.4
2018-07-06T03:12:32.743Z,14.3
2018-07-06T03:13:22.539Z,14.3
2018-07-06T03:14:12.859Z,14.3
2018-07-06T03:15:03.005Z,14.3
2018-07-06T03:15:52.826Z,14.3
2018-07-06T03:16:43.101Z,14.3
2018-07-06T03:17:32.849Z,14.3
2018-07-06T03:18:22.928Z,14.3
2018-07-06T03:19:13.252Z,14.3
2018-07-06T03:20:02.500Z,14.3
2018-07-06T03:20:52.861Z,14.3
2018-07-06T03:21:43.461Z,14.4
2018-07-06T03:22:32.947Z,14.4
2018-07-06T03:23:23.573Z,14.4
2018-07-06T03:24:13.663Z,14.4
2018-07-06T03:25:03.703Z,14.4
2018-07-06T03:25:52.940Z,14.4
2018-07-06T03:26:43.303Z,14.4
2018-07-06T03:27:33.333Z,14.5
2018-07-06T03:28:24.430Z,14.5
2018-07-06T03:29:13.741Z,14.4
2018-07-06T03:30:03.856Z,14.4
2018-07-06T03:30:53.979Z,14.4
2018-07-06T03:31:44.040Z,14.5
2018-07-06T03:32:34.280Z,14.5
2018-07-06T03:33:24.074Z,14.6
2018-07-06T03:34:14.122Z,14.6
2018-07-06T03:35:04.539Z,14.6
2018-07-06T03:35:54.535Z,14.6
2018-07-06T03:36:44.587Z,14.6
2018-07-06T03:37:34.418Z,14.7
2018-07-06T03:38:24.202Z,14.7
2018-07-06T03:39:14.554Z,14.7
2018-07-06T03:40:04.874Z,14.6
2018-07-06T03:40:54.659Z,14.6
2018-07-06T03:41:44.707Z,14.6
2018-07-06T03:42:33.945Z,14.6
2018-07-06T03:43:24.843Z,14.6
2018-07-06T03:44:14.627Z,14.6
2018-07-06T03:45:04.979Z,14.6
2018-07-06T03:45:55.309Z,14.7
2018-07-06T03:46:44.849Z,14.7
2018-07-06T03:47:35.172Z,14.8
2018-07-06T03:48:25.228Z,14.8
2018-07-06T03:49:15.567Z,14.8
2018-07-06T03:50:05.115Z,14.9
2018-07-06T03:50:55.409Z,14.9
2018-07-06T03:51:45.474Z,14.9
2018-07-06T03:52:35.551Z,14.9
2018-07-06T03:53:25.898Z,15
2018-07-06T03:54:15.971Z,15
2018-07-06T03:55:05.791Z,15
2018-07-06T03:55:56.072Z,15
2018-07-06T03:56:45.992Z,15.1
2018-07-06T03:57:35.676Z,15.1
2018-07-06T03:58:25.726Z,15.1
2018-07-06T03:59:16.054Z,15.1
2018-07-06T04:00:06.428Z,15.2
2018-07-06T04:00:56.300Z,15.3
2018-07-06T04:01:46.264Z,15.3
2018-07-06T04:02:36.066Z,15.3
2018-07-06T04:03:26.685Z,15.3
2018-07-06T04:04:16.498Z,15.3
2018-07-06T04:05:06.252Z,15.3
2018-07-06T04:05:56.594Z,15.4
2018-07-06T04:06:46.698Z,15.4
2018-07-06T04:07:36.997Z,15.4
2018-07-06T04:08:25.941Z,15.4
2018-07-06T04:09:16.794Z,15.5
2018-07-06T04:10:06.912Z,15.7
2018-07-06T04:10:57.255Z,15.8
2018-07-06T04:11:47.373Z,15.9
2018-07-06T04:12:37.089Z,15.9
2018-07-06T04:13:26.879Z,16
2018-07-06T04:14:17.491Z,16.1
2018-07-06T04:15:07.556Z,16.1
2018-07-06T04:15:58.009Z,16.1
2018-07-06T04:16:47.406Z,16.1
2018-07-06T04:17:37.756Z,16.2
2018-07-06T04:18:27.580Z,16.2
2018-07-06T04:19:17.622Z,16.2
2018-07-06T04:20:07.962Z,16.2
2018-07-06T04:20:57.750Z,16.3
2018-07-06T04:21:47.804Z,16.3
2018-07-06T04:22:38.230Z,16.3
2018-07-06T04:23:27.930Z,16.3
2018-07-06T04:24:18.269Z,16.3
2018-07-06T04:25:08.090Z,16.3
2018-07-06T04:25:58.135Z,16.3
2018-07-06T04:26:48.217Z,16.3
2018-07-06T04:27:37.974Z,16.3
2018-07-06T04:28:28.332Z,16.3
2018-07-06T04:29:18.696Z,16.3
2018-07-06T04:30:08.734Z,16.3
2018-07-06T04:30:58.541Z,16.3
2018-07-06T04:31:48.969Z,16.4
2018-07-06T04:32:38.661Z,16.5
2018-07-06T04:33:28.977Z,16.5
2018-07-06T04:34:18.788Z,16.6
2018-07-06T04:35:09.126Z,16.6
2018-07-06T04:35:59.185Z,16.6
2018-07-06T04:36:49.003Z,16.6
2018-07-06T04:37:39.396Z,16.6
2018-07-06T04:38:29.414Z,16.7
2018-07-06T04:39:19.435Z,16.7
2018-07-06T04:40:09.227Z,16.7
2018-07-06T04:40:59.585Z,16.8
2018-07-06T04:41:49.646Z,16.9
2018-07-06T04:42:39.726Z,16.9
2018-07-06T04:43:29.782Z,16.9
2018-07-06T04:44:20.318Z,16.9
2018-07-06T04:45:59.696Z,17.1
2018-07-06T04:46:50.088Z,17.1
2018-07-06T04:47:40.180Z,17.2
2018-07-06T04:48:30.180Z,17.3
2018-07-06T04:49:19.451Z,17.3
2018-07-06T04:50:10.294Z,17.4
2018-07-06T04:51:00.778Z,17.4
2018-07-06T04:51:50.439Z,17.4
2018-07-06T04:52:40.575Z,17.4
2018-07-06T04:53:30.602Z,17.4
2018-07-06T04:54:20.618Z,17.6
2018-07-06T04:55:10.656Z,17.7
2018-07-06T04:56:00.449Z,17.6
2018-07-06T04:56:50.566Z,17.6
2018-07-06T04:57:40.410Z,17.8
2018-07-06T04:58:30.933Z,17.7
2018-07-06T04:59:20.187Z,17.8
2018-07-06T05:00:10.511Z,17.8
2018-07-06T05:01:00.605Z,17.9
2018-07-06T05:01:50.914Z,17.9
2018-07-06T05:02:41.271Z,18
2018-07-06T05:03:30.783Z,18.1
2018-07-06T05:04:21.132Z,18.2
2018-07-06T05:05:10.624Z,18.2
2018-07-06T05:06:01.549Z,18.3
2018-07-06T05:06:51.296Z,18.2
2018-07-06T05:07:41.533Z,18.3
2018-07-06T05:08:31.433Z,18.3
2018-07-06T05:09:21.507Z,18.3
2018-07-06T05:10:11.377Z,18.4
2018-07-06T05:11:01.641Z,18.3
2018-07-06T05:11:51.978Z,18.4
2018-07-06T05:12:41.751Z,18.4
2018-07-06T05:13:31.807Z,18.4
2018-07-06T05:14:21.902Z,18.4
2018-07-06T05:15:11.679Z,18.5
2018-07-06T05:16:02.033Z,18.6
2018-07-06T05:16:52.288Z,18.5
2018-07-06T05:17:42.165Z,18.4
2018-07-06T05:18:32.500Z,18.4
2018-07-06T05:19:22.561Z,18.4
2018-07-06T05:20:12.606Z,18.5
2018-07-06T05:21:02.433Z,18.6
2018-07-06T05:21:52.738Z,18.8
2018-07-06T05:22:43.060Z,18.9
2018-07-06T05:23:32.615Z,19.1
2018-07-06T05:24:22.687Z,19.1
2018-07-06T05:25:12.746Z,19.3
2018-07-06T05:26:03.092Z,19.2
2018-07-06T05:26:53.139Z,19.2
2018-07-06T05:27:43.177Z,19.2
2018-07-06T05:28:33.317Z,19.1
2018-07-06T05:29:23.332Z,19.1
2018-07-06T05:30:13.376Z,19.1
2018-07-06T05:31:03.175Z,19
2018-07-06T05:31:53.436Z,19.1
2018-07-06T05:32:43.106Z,19.1
2018-07-06T05:33:33.640Z,19.1
2018-07-06T05:34:23.470Z,19.3
2018-07-06T05:35:13.787Z,19.6
2018-07-06T05:36:03.861Z,19.6
2018-07-06T05:36:53.907Z,19.8
2018-07-06T05:37:44.244Z,19.8
2018-07-06T05:38:33.757Z,19.9
2018-07-06T05:39:24.081Z,19.9
2018-07-06T05:40:14.153Z,20
2018-07-06T05:41:03.959Z,20.2
2018-07-06T05:41:54.298Z,20.1
2018-07-06T05:42:44.354Z,20
2018-07-06T05:43:34.251Z,19.9
2018-07-06T05:44:24.493Z,19.9
2018-07-06T05:45:14.586Z,20
2018-07-06T05:46:04.616Z,19.8
2018-07-06T05:46:54.118Z,19.9
2018-07-06T05:47:43.951Z,20.1
2018-07-06T05:48:34.551Z,20.3
2018-07-06T05:49:24.892Z,20.6
2018-07-06T05:50:14.959Z,20.6
2018-07-06T05:51:05.010Z,21
2018-07-06T05:51:55.080Z,21.2
2018-07-06T05:52:45.250Z,21.3
2018-07-06T05:53:35.201Z,21.2
2018-07-06T05:54:25.003Z,21.1
2018-07-06T05:55:14.790Z,20.8
2018-07-06T05:56:05.134Z,20.8
2018-07-06T05:56:55.192Z,20.9
2018-07-06T05:57:45.256Z,21
2018-07-06T05:59:25.390Z,21.4
2018-07-06T06:00:15.454Z,21.5
2018-07-06T06:01:05.799Z,21.4
2018-07-06T06:01:55.289Z,21.6
2018-07-06T06:02:45.901Z,21.6
2018-07-06T06:03:35.693Z,21.6
2018-07-06T06:04:26.059Z,21.5
2018-07-06T06:05:16.107Z,21.3
2018-07-06T06:06:06.177Z,21.3
2018-07-06T06:07:45.715Z,21.3
2018-07-06T06:08:36.339Z,21.3
2018-07-06T06:09:26.490Z,21.3
2018-07-06T06:10:16.230Z,21.7
2018-07-06T06:11:06.303Z,21.9
2018-07-06T06:11:56.606Z,21.8
2018-07-06T06:12:46.728Z,21.4
2018-07-06T06:13:36.311Z,21.5
2018-07-06T06:14:26.521Z,21.7
2018-07-06T06:15:16.443Z,21.8
2018-07-06T06:16:06.863Z,21.9
2018-07-06T06:16:57.030Z,22.2
2018-07-06T06:17:47.100Z,22.2
2018-07-06T06:18:37.858Z,22.3
2018-07-06T06:19:27.219Z,22.4
2018-07-06T06:20:16.988Z,22.4
2018-07-06T06:21:07.053Z,22.6
2018-07-06T06:21:57.430Z,22.6
2018-07-06T06:22:47.485Z,22.6
2018-07-06T06:23:37.560Z,22.4
2018-07-06T06:24:27.599Z,22.4
2018-07-06T06:25:17.256Z,22.4
2018-07-06T06:26:07.729Z,22.1
2018-07-06T06:26:57.240Z,21.8
2018-07-06T06:27:47.849Z,21.4
2018-07-06T06:28:37.362Z,21.4
2018-07-06T06:29:28.038Z,21.4
2018-07-06T06:30:17.020Z,21.1
2018-07-06T06:31:07.165Z,21.3
2018-07-06T06:31:57.910Z,21.8
2018-07-06T06:32:48.229Z,22.2
2018-07-06T06:33:39.129Z,22.7
2018-07-06T06:34:28.379Z,22.8
2018-07-06T06:35:18.457Z,22.9
2018-07-06T06:36:08.249Z,23
2018-07-06T06:36:58.595Z,23.2
2018-07-06T06:37:48.334Z,23.2
2018-07-06T06:38:38.417Z,23.2
2018-07-06T06:39:29.181Z,23.4
2018-07-06T06:40:18.274Z,23
2018-07-06T06:41:08.613Z,23.4
2018-07-06T06:41:58.971Z,23.6
2018-07-06T06:42:48.711Z,23.6
2018-07-06T06:43:38.818Z,23.2
2018-07-06T06:44:28.870Z,23.1
2018-07-06T06:45:18.760Z,23.2
2018-07-06T06:46:09.301Z,23.1
2018-07-06T06:46:58.770Z,23.2
2018-07-06T06:47:49.120Z,23.6
2018-07-06T06:48:39.469Z,23.5
2018-07-06T06:49:29.259Z,23.4
2018-07-06T06:50:19.353Z,23.6
2018-07-06T06:51:09.380Z,23.8
2018-07-06T06:51:59.469Z,24
2018-07-06T06:52:49.513Z,24.1
2018-07-06T06:53:39.836Z,24.2
2018-07-06T06:54:29.913Z,24.3
2018-07-06T06:55:19.254Z,24.3
2018-07-06T06:56:10.092Z,24.2
2018-07-06T06:57:00.116Z,23.8
2018-07-06T06:57:49.633Z,23.5
2018-07-06T06:58:40.239Z,23.2
2018-07-06T06:59:30.295Z,23.8
2018-07-06T07:00:28.780Z,23.9
2018-07-06T07:01:10.862Z,24.1
2018-07-06T07:02:00.243Z,24.4
2018-07-06T07:02:50.602Z,24.4
2018-07-06T07:03:40.642Z,24.4
2018-07-06T07:04:30.730Z,24.4
2018-07-06T07:05:20.936Z,24.4
2018-07-06T07:06:10.669Z,24.6
2018-07-06T07:07:00.354Z,24.6
2018-07-06T07:07:51.563Z,24.7
2018-07-06T07:08:40.799Z,24.8
2018-07-06T07:09:30.872Z,24.7
2018-07-06T07:10:21.229Z,24.7
2018-07-06T07:11:10.701Z,24.7
2018-07-06T07:12:01.330Z,24.6
2018-07-06T07:12:50.794Z,24.7
2018-07-06T07:13:41.864Z,25
2018-07-06T07:14:31.554Z,25.3
2018-07-06T07:15:21.564Z,25.3
2018-07-06T07:16:10.808Z,25.3
2018-07-06T07:17:01.184Z,25.3
2018-07-06T07:17:51.809Z,25.3
2018-07-06T07:18:41.871Z,25.1
2018-07-06T07:19:31.627Z,25.4
2018-07-06T07:20:20.653Z,25.4
2018-07-06T07:21:11.442Z,25.3
2018-07-06T07:22:01.869Z,25.4
2018-07-06T07:22:52.174Z,25.4
2018-07-06T07:23:42.303Z,25.6
2018-07-06T07:24:32.271Z,25.7
2018-07-06T07:25:22.066Z,25.7
2018-07-06T07:26:11.859Z,25.6
2018-07-06T07:27:02.499Z,25.5
2018-07-06T07:27:52.269Z,25.3
2018-07-06T07:28:42.331Z,25.1
2018-07-06T07:29:32.113Z,25.4
2018-07-06T07:30:22.174Z,25.3
2018-07-06T07:31:12.523Z,25
2018-07-06T07:32:02.603Z,24.9
2018-07-06T07:32:52.718Z,24.7
2018-07-06T07:33:42.519Z,25.2
2018-07-06T07:34:33.064Z,25.3
2018-07-06T07:35:22.838Z,25.4
2018-07-06T07:36:12.894Z,25.6
2018-07-06T07:37:03.243Z,25.8
2018-07-06T07:37:52.308Z,25.9
2018-07-06T07:38:43.423Z,26.1
2018-07-06T07:39:32.997Z,26.2
2018-07-06T07:40:23.543Z,26.7
2018-07-06T07:41:13.645Z,26.8
2018-07-06T07:42:03.661Z,26.9
2018-07-06T07:42:53.718Z,26.9
2018-07-06T07:43:43.783Z,27.1
2018-07-06T07:44:33.877Z,27
2018-07-06T07:45:24.053Z,26.6
2018-07-06T07:46:14.051Z,26.6
2018-07-06T07:47:04.135Z,26.5
2018-07-06T07:47:53.835Z,26.7
2018-07-06T07:48:43.917Z,26.9
2018-07-06T07:49:33.982Z,27
2018-07-06T07:50:24.302Z,26.8
2018-07-06T07:51:14.176Z,26.6
2018-07-06T07:52:04.178Z,26.9
2018-07-06T07:52:54.231Z,27.2
2018-07-06T07:53:44.592Z,27.1
2018-07-06T07:54:35.203Z,27.4
2018-07-06T07:55:24.436Z,27.3
2018-07-06T07:56:14.756Z,27.4
2018-07-06T07:57:04.857Z,27.3
2018-07-06T07:57:54.890Z,26.7
2018-07-06T07:58:44.687Z,26.7
2018-07-06T07:59:35.023Z,26.5
2018-07-06T08:00:25.857Z,26.4
2018-07-06T08:01:16.684Z,26.4
2018-07-06T08:02:05.448Z,26.4
2018-07-06T08:02:55.342Z,26.8
2018-07-06T08:03:44.804Z,26.6
2018-07-06T08:04:35.195Z,26.3
2018-07-06T08:05:25.497Z,26.3
2018-07-06T08:06:15.583Z,26.5
2018-07-06T08:07:05.641Z,26.7
2018-07-06T08:07:55.696Z,27.3
2018-07-06T08:08:45.527Z,27.6
2018-07-06T08:09:35.263Z,27.4
2018-07-06T08:10:25.894Z,27.6
2018-07-06T08:11:15.399Z,27.7
2018-07-06T08:12:05.471Z,28
2018-07-06T08:12:55.664Z,28.3
2018-07-06T08:13:46.154Z,28.4
2018-07-06T08:14:36.478Z,28.6
2018-07-06T08:15:26.038Z,28.4
2018-07-06T08:16:16.323Z,28.6
2018-07-06T08:17:06.158Z,29
2018-07-06T08:17:56.200Z,28.6
2018-07-06T08:18:46.273Z,28.4
2018-07-06T08:19:36.610Z,28.6
2018-07-06T08:20:26.653Z,28.8
2018-07-06T08:21:16.457Z,28.3
2018-07-06T08:22:06.821Z,28.5
2018-07-06T08:22:56.856Z,28.1
2018-07-06T08:23:46.691Z,28
2018-07-06T08:24:36.733Z,28.3
2018-07-06T08:25:27.352Z,28.3
2018-07-06T08:27:07.210Z,28.1
2018-07-06T08:27:57.022Z,28.1
2018-07-06T08:29:37.409Z,28
2018-07-06T08:30:27.633Z,27.9
2018-07-06T08:31:17.247Z,28.2
2018-07-06T08:32:07.612Z,28.4
2018-07-06T08:32:57.424Z,28
2018-07-06T08:33:47.777Z,28.1
2018-07-06T08:34:37.788Z,27.6
2018-07-06T08:35:27.280Z,27.8
2018-07-06T08:36:17.353Z,28.2
2018-07-06T08:37:07.994Z,28
2018-07-06T08:37:57.856Z,27.3
2018-07-06T08:38:47.831Z,27.4
2018-07-06T08:39:38.681Z,28.3
2018-07-06T08:40:28.255Z,28.8
2018-07-06T08:41:18.054Z,28.7
2018-07-06T08:42:08.418Z,28.8
2018-07-06T08:42:58.434Z,29.1
2018-07-06T08:43:47.741Z,29.2
2018-07-06T08:44:38.014Z,29.3
2018-07-06T08:45:28.403Z,29.1
2018-07-06T08:46:18.136Z,29
2018-07-06T08:47:08.510Z,28.7
2018-07-06T08:47:58.284Z,28.6
2018-07-06T08:48:48.636Z,28.3
2018-07-06T08:49:38.405Z,28.3
2018-07-06T08:50:28.906Z,28.4
2018-07-06T08:51:19.165Z,27.7
2018-07-06T08:53:49.034Z,27.9
2018-07-06T08:54:39.340Z,28.3
2018-07-06T08:55:29.502Z,28.7
2018-07-06T08:56:19.222Z,29.2
2018-07-06T08:57:09.568Z,29.4
2018-07-06T08:57:59.391Z,29.2
2018-07-06T08:58:49.727Z,29.7
2018-07-06T08:59:39.771Z,30.3
2018-07-06T09:00:29.848Z,30.3
2018-07-06T09:01:19.034Z,30
2018-07-06T09:02:09.696Z,30.1
2018-07-06T09:03:00.043Z,30.2
2018-07-06T09:03:50.086Z,30.3
2018-07-06T09:04:40.477Z,30
2018-07-06T09:05:30.250Z,29.1
2018-07-06T09:06:20.046Z,28.6
2018-07-06T09:07:10.362Z,28.1
2018-07-06T09:08:00.174Z,28.4
2018-07-06T09:08:50.518Z,27.9
2018-07-06T09:09:40.262Z,28
2018-07-06T09:10:30.629Z,28.1
2018-07-06T09:11:20.685Z,27.8
2018-07-06T09:12:10.484Z,27.8
2018-07-06T09:13:01.140Z,28.3
2018-07-06T09:13:50.595Z,29.3
2018-07-06T09:14:40.952Z,29.4
2018-07-06T09:15:30.742Z,29.4
2018-07-06T09:16:21.523Z,29.4
2018-07-06T09:17:10.880Z,29.7
2018-07-06T09:18:01.265Z,30
2018-07-06T09:18:50.727Z,29.8
2018-07-06T09:19:41.931Z,29.9
2018-07-06T09:20:31.434Z,30.1
2018-07-06T09:21:21.220Z,30.4
2018-07-06T09:22:11.547Z,30.4
2018-07-06T09:23:01.634Z,30.6
2018-07-06T09:23:51.421Z,30.9
2018-07-06T09:24:41.756Z,31
2018-07-06T09:25:32.677Z,30.9
2018-07-06T09:26:21.760Z,30.9
2018-07-06T09:27:11.957Z,30.9
2018-07-06T09:28:01.722Z,31.1
2018-07-06T09:28:52.080Z,30.7
2018-07-06T09:29:42.159Z,30.1
2018-07-06T09:30:32.208Z,29.8
2018-07-06T09:31:22.307Z,29.4
2018-07-06T09:32:12.325Z,29.4
2018-07-06T09:33:02.443Z,29.9
2018-07-06T09:33:51.899Z,29.6
2018-07-06T09:34:42.258Z,29.5
2018-07-06T09:35:32.319Z,29.6
2018-07-06T09:36:22.635Z,29.7
2018-07-06T09:37:12.712Z,30
2018-07-06T09:38:02.801Z,30.3
2018-07-06T09:38:52.867Z,30.3
2018-07-06T09:39:42.963Z,30.4
2018-07-06T09:40:32.967Z,31
2018-07-06T09:41:23.042Z,30
2018-07-06T09:42:13.179Z,29.6
2018-07-06T09:43:02.607Z,29.8
2018-07-06T09:43:53.507Z,30.3
2018-07-06T09:44:43.518Z,31.1
2018-07-06T09:45:33.536Z,31.7
2018-07-06T09:46:23.522Z,32.2
2018-07-06T09:47:13.521Z,32.4
2018-07-06T09:48:03.581Z,32.6
2018-07-06T09:48:53.653Z,32.6
2018-07-06T09:49:43.966Z,32.3
2018-07-06T09:50:33.982Z,32.1
2018-07-06T09:51:23.494Z,32.4
2018-07-06T09:52:13.602Z,32.4
2018-07-06T09:53:04.030Z,32.7
2018-07-06T09:53:54.042Z,32.3
2018-07-06T09:54:43.807Z,32
2018-07-06T09:55:34.199Z,31.9
2018-07-06T09:56:23.989Z,32.4
2018-07-06T09:57:14.057Z,32.4
2018-07-06T09:58:04.767Z,32.4
2018-07-06T09:58:54.171Z,32.3
2018-07-06T09:59:44.536Z,32.8
2018-07-06T10:00:34.590Z,32.8
2018-07-06T10:01:24.622Z,32.9
2018-07-06T10:02:14.697Z,33.3
2018-07-06T10:03:04.207Z,33.4
2018-07-06T10:03:54.523Z,33.3
2018-07-06T10:04:44.667Z,33.3
2018-07-06T10:05:34.880Z,33.1
2018-07-06T10:06:24.739Z,33.2
2018-07-06T10:07:15.116Z,33.3
2018-07-06T10:08:05.202Z,33.1
2018-07-06T10:08:55.287Z,33.4
2018-07-06T10:09:45.105Z,33.5
2018-07-06T10:10:35.345Z,33.4
2018-07-06T10:11:25.434Z,33.3
2018-07-06T10:12:15.500Z,32.8
2018-07-06T10:13:05.283Z,32.9
2018-07-06T10:13:55.344Z,32.8
2018-07-06T10:14:45.656Z,33.1
2018-07-06T10:15:35.441Z,33.4
2018-07-06T10:16:25.551Z,33.3
2018-07-06T10:17:15.574Z,32.9
2018-07-06T10:18:05.403Z,32.4
2018-07-06T10:18:56.033Z,31.4
2018-07-06T10:19:45.325Z,31.3
2018-07-06T10:20:36.144Z,30.6
2018-07-06T10:21:26.211Z,30.4
2018-07-06T10:22:16.006Z,30.3
2018-07-06T10:23:06.361Z,30.8
2018-07-06T10:23:56.411Z,30.6
2018-07-06T10:24:45.955Z,30.2
2018-07-06T10:25:36.269Z,30.2
2018-07-06T10:26:26.093Z,31.1
2018-07-06T10:27:16.488Z,31.8
2018-07-06T10:28:06.718Z,31.8
2018-07-06T10:28:56.508Z,31.8
2018-07-06T10:29:46.583Z,32.4
2018-07-06T10:30:36.679Z,33.2
2018-07-06T10:31:27.002Z,33.6
2018-07-06T10:32:17.074Z,33
2018-07-06T10:33:06.937Z,32.5
2018-07-06T10:33:57.995Z,33.1
2018-07-06T10:34:47.270Z,33.9
2018-07-06T10:35:37.331Z,34.2
2018-07-06T10:36:26.875Z,34
2018-07-06T10:37:17.180Z,34.1
2018-07-06T10:38:07.231Z,33.5
2018-07-06T10:38:57.552Z,33.5
2018-07-06T10:39:48.344Z,33.4
2018-07-06T10:40:37.467Z,32.9
2018-07-06T10:41:27.779Z,32.6
2018-07-06T10:42:17.566Z,32.7
2018-07-06T10:43:07.896Z,32.4
2018-07-06T10:43:57.963Z,31.5
2018-07-06T10:44:48.035Z,31.5
2018-07-06T10:45:38.095Z,31.6
2018-07-06T10:46:27.619Z,31.8
2018-07-06T10:47:17.698Z,31.8
2018-07-06T10:48:07.730Z,31.4
2018-07-06T10:48:58.379Z,31.5
2018-07-06T10:49:48.468Z,31.7
2018-07-06T10:50:37.956Z,31.6
2018-07-06T10:51:28.606Z,31.3
2018-07-06T10:52:18.684Z,31
2018-07-06T10:53:08.691Z,31.1
2018-07-06T10:53:58.487Z,31.1
2018-07-06T10:54:48.842Z,31.1
2018-07-06T10:55:38.934Z,31.2
2018-07-06T10:56:28.688Z,31.4
2018-07-06T10:57:18.754Z,31.4
2018-07-06T10:58:08.827Z,31.6
2018-07-06T10:58:58.877Z,32
2018-07-06T10:59:49.283Z,32
2018-07-06T11:00:38.721Z,32
2018-07-06T11:01:29.424Z,32.1
2018-07-06T11:02:19.418Z,31.7
2018-07-06T11:03:09.251Z,31.6
2018-07-06T11:03:59.285Z,32.1
2018-07-06T11:04:49.373Z,31.8
2018-07-06T11:05:39.124Z,31.9
2018-07-06T11:06:29.743Z,32.1
2018-07-06T11:07:19.826Z,32.4
2018-07-06T11:08:09.315Z,32.8
2018-07-06T11:08:59.578Z,33.1
2018-07-06T11:09:49.725Z,33
2018-07-06T11:10:39.811Z,33
2018-07-06T11:11:30.063Z,32.7
2018-07-06T11:12:20.220Z,32
2018-07-06T11:13:10.283Z,31.8
2018-07-06T11:14:00.379Z,31.9
2018-07-06T11:14:49.855Z,32.3